Latest Weather Observations for Cato Island

IDQ60801

Issued at 7:35 pm EST Friday 1 August 2014 (issued every 30 minutes, with the page automatically refreshed every 10 minutes)

About weather observations | Map of weather stations | Latest weather observations for QLD | Other Formats
Station Details ID: 200601 Name: CATO ISLAND Lat: -23.25 Lon: 155.54 Height: 6.3 m
Data from the previous 72 hours. | See also: Recent months for locations in Queensland
Date/Time
EST
Temp
°C
App
Temp
°C
Dew
Point
Rel
Hum
%
Delta-T
°C
Wind Press
QNH
hPa
Press
MSL
hPa
Rain
since 9 am
mm
Dir
 
Spd
km/h
Gust
km/h
Spd
kts
Gust
kts
01/07:30pm 20.6 - - - - SW 0 0 0 0 1017.5 - -
01/07:00pm 20.7 - - - - SW 0 0 0 0 1017.3 1017.3 -
01/06:30pm 20.9 - - - - CALM 0 2 0 1 1017.1 - -
01/06:00pm 20.8 - - - - SW 0 2 0 1 1016.8 1016.9 -
01/05:30pm 21.0 - - - - W 2 6 1 3 1016.6 - -
01/05:00pm 21.4 - - - - W 9 11 5 6 1016.3 1016.4 -
01/04:30pm 21.6 - - - - W 7 11 4 6 1016.2 - -
01/04:00pm 21.6 - - - - WSW 13 17 7 9 1016.0 1016.0 -
01/03:30pm 23.0 - - - - W 15 19 8 10 1016.0 - -
01/03:00pm 22.7 - - - - NW 17 19 9 10 1015.9 1015.9 -
01/02:30pm 22.3 - - - - NW 19 22 10 12 1015.8 - -
01/02:00pm 22.4 - - - - WNW 28 33 15 18 1016.1 1016.1 -
01/01:30pm 22.8 - - - - NNW 32 35 17 19 1016.3 - -
01/01:00pm 22.8 - - - - N 35 39 19 21 1016.5 1016.5 -
01/12:30pm 24.2 - - - - N 22 26 12 14 1016.6 - -
01/12:00pm 24.6 - - - - N 24 28 13 15 1017.0 1017.0 -
01/11:30am 23.9 - - - - NNE 22 28 12 15 1017.5 - -
01/11:00am 23.8 - - - - NNE 22 26 12 14 1018.0 1017.9 -
01/10:30am 23.6 - - - - NNE 20 24 11 13 1018.2 - -
01/10:00am 23.3 - - - - N 20 24 11 13 1018.4 1018.4 -
01/09:30am 23.4 - - - - N 22 26 12 14 1018.5 - -
01/09:00am 22.7 - - - - NNE 26 30 14 16 1018.7 1018.7 -
01/08:30am 22.5 - - - - NNE 24 28 13 15 1018.8 - -
01/08:00am 22.0 - - - - NNE 26 30 14 16 1018.6 1018.6 -
01/07:30am 21.8 - - - - NNE 24 28 13 15 1018.4 - -
01/07:00am 21.6 - - - - NNE 26 30 14 16 1018.3 1018.3 -
01/06:30am 21.1 - - - - NNE 24 30 13 16 1018.2 - -
01/06:00am 21.1 - - - - NNE 26 30 14 16 1017.9 1017.9 -
01/05:30am 21.3 - - - - NNE 26 30 14 16 1017.6 - -
01/05:00am 21.2 - - - - NNE 26 30 14 16 1017.5 1017.5 -
01/04:30am 21.3 - - - - NNE 26 32 14 17 1017.4 - -
01/04:00am 21.2 - - - - NNE 22 26 12 14 1017.4 1017.4 -
01/03:30am 21.2 - - - - NNE 28 33 15 18 1017.4 - -
01/03:00am 21.3 - - - - NNE 32 35 17 19 1017.4 1017.4 -
01/02:30am 21.3 - - - - NNE 30 35 16 19 1017.8 - -
01/02:00am 21.3 - - - - NNE 32 35 17 19 1018.0 1018.0 -
01/01:30am 21.4 - - - - NNE 33 41 18 22 1018.1 - -
01/01:00am 21.4 - - - - NE 35 41 19 22 1018.2 1018.2 -
01/12:30am 21.3 - - - - NE 39 44 21 24 1018.2 - -
01/12:00am 21.2 - - - - NE 39 46 21 25 1018.5 1018.5 -
 
Date/Time
EST
Temp
°C
App
Temp
°C
Dew
Point
Rel
Hum
%
Delta-T
°C
Wind Press
QNH
hPa
Press
MSL
hPa
Rain
since 9 am
mm
Dir
 
Spd
km/h
Gust
km/h
Spd
kts
Gust
kts
31/11:30pm 21.3 - - - - NNE 37 43 20 23 1018.8 - -
31/11:00pm 21.3 - - - - NNE 35 44 19 24 1018.9 1018.8 -
31/10:30pm 21.4 - - - - NNE 30 35 16 19 1019.1 - -
31/10:00pm 21.5 - - - - NNE 28 33 15 18 1019.3 1019.3 -
31/09:30pm 21.5 - - - - NNE 26 32 14 17 1019.5 - -
31/09:00pm 21.6 - - - - NE 28 35 15 19 1019.6 1019.6 -
31/08:30pm 21.5 - - - - NNE 30 35 16 19 1019.5 - -
31/08:00pm 21.5 - - - - NE 28 33 15 18 1019.4 1019.4 -
31/07:30pm 21.4 - - - - NE 30 35 16 19 1019.3 - -
31/07:00pm 21.3 - - - - NE 30 35 16 19 1019.1 1019.2 -
31/06:30pm 21.4 - - - - NE 30 33 16 18 1018.8 - -
31/06:00pm 21.3 - - - - NE 28 32 15 17 1018.5 1018.5 -
31/05:30pm 21.4 - - - - NE 28 32 15 17 1018.4 - -
31/05:00pm 21.5 - - - - NE 26 32 14 17 1018.2 1018.2 -
31/04:30pm 21.6 - - - - NE 24 30 13 16 1018.1 - -
31/04:00pm 21.9 - - - - NE 28 32 15 17 1018.1 1018.1 -
31/03:30pm 22.1 - - - - ENE 26 28 14 15 1018.0 - -
31/03:00pm 22.1 - - - - ENE 26 32 14 17 1017.9 1017.9 -
31/02:30pm 21.5 - - - - E 30 35 16 19 1018.0 - -
31/02:00pm 21.6 - - - - ENE 32 35 17 19 1018.2 1018.1 -
31/01:30pm 22.4 - - - - ENE 26 32 14 17 1018.6 - -
31/01:00pm 22.7 - - - - ENE 22 30 12 16 1018.9 1018.9 -
31/12:30pm 22.6 - - - - E 28 30 15 16 1019.2 - -
31/12:00pm 22.6 - - - - E 24 28 13 15 1019.7 1019.6 -
31/11:30am 22.5 - - - - E 22 26 12 14 1020.1 - -
31/11:00am 22.6 - - - - E 22 24 12 13 1020.6 1020.6 -
31/10:30am 22.7 - - - - ESE 20 26 11 14 1020.9 - -
31/10:00am 22.3 - - - - ESE 20 22 11 12 1021.2 1021.2 -
31/09:30am 22.2 - - - - E 20 24 11 13 1021.1 - -
31/09:00am 22.4 - - - - ESE 22 26 12 14 1021.2 1021.2 -
31/08:30am 22.3 - - - - E 20 24 11 13 1021.2 - -
31/08:00am 22.0 - - - - E 19 20 10 11 1021.2 1021.2 -
31/07:30am 21.8 - - - - E 17 20 9 11 1021.1 - -
31/07:00am 21.7 - - - - E 19 22 10 12 1020.9 1020.8 -
31/06:30am 21.3 - - - - NE 17 20 9 11 1020.8 - -
31/06:00am 21.5 - - - - ENE 17 20 9 11 1020.7 1020.7 -
31/05:30am 21.2 - - - - NE 20 26 11 14 1020.6 - -
31/05:00am 21.1 - - - - NE 22 26 12 14 1020.4 1020.4 -
31/04:30am 21.2 - - - - NE 22 24 12 13 1020.3 - -
31/04:00am 21.1 - - - - NE 20 24 11 13 1020.1 1020.1 -
31/03:30am 21.1 - - - - NE 22 24 12 13 1020.2 - -
31/03:00am 21.0 - - - - NE 22 28 12 15 1020.2 1020.2 -
31/02:30am 20.8 - - - - NE 24 28 13 15 1020.3 - -
31/02:00am 20.9 - - - - NE 24 28 13 15 1020.6 1020.6 -
31/01:30am 21.0 - - - - NE 24 28 13 15 1020.7 - -
31/01:00am 21.0 - - - - ENE 22 28 12 15 1021.0 1021.0 -
31/12:30am 21.0 - - - - ENE 22 26 12 14 1021.0 - -
31/12:00am 20.8 - - - - ENE 22 26 12 14 1021.1 1021.1 -
 
Date/Time
EST
Temp
°C
App
Temp
°C
Dew
Point
Rel
Hum
%
Delta-T
°C
Wind Press
QNH
hPa
Press
MSL
hPa
Rain
since 9 am
mm
Dir
 
Spd
km/h
Gust
km/h
Spd
kts
Gust
kts
30/11:30pm 20.9 - - - - ENE 26 30 14 16 1021.3 - -
30/11:00pm 20.9 - - - - NE 24 28 13 15 1021.5 1021.5 -
30/10:30pm 20.9 - - - - ENE 22 28 12 15 1021.6 - -
30/10:00pm 20.9 - - - - ENE 24 30 13 16 1021.6 1021.6 -
30/09:30pm 21.0 - - - - ENE 24 28 13 15 1021.5 - -
30/09:00pm 20.8 - - - - ENE 26 30 14 16 1021.4 1021.4 -
30/08:30pm 20.8 - - - - ENE 24 26 13 14 1021.3 - -
30/08:00pm 20.7 - - - - NE 24 28 13 15 1021.4 1021.4 -
30/07:30pm 20.7 - - - - ENE 24 26 13 14 1021.3 - -
30/07:00pm 20.9 - - - - ENE 22 26 12 14 1021.3 1021.2 -
30/06:30pm 20.8 - - - - ENE 20 24 11 13 1021.1 - -
30/06:00pm 21.1 - - - - E 19 22 10 12 1020.9 1020.9 -
30/05:30pm 21.3 - - - - E 15 19 8 10 1020.6 - -
30/05:00pm 21.4 - - - - E 15 17 8 9 1020.4 1020.4 -
30/04:30pm 21.2 - - - - E 17 20 9 11 1020.2 - -
30/04:00pm 21.3 - - - - E 15 17 8 9 1020.2 1020.2 -
30/03:30pm 21.4 - - - - E 15 19 8 10 1020.1 - -
30/03:00pm 21.6 - - - - E 15 20 8 11 1020.2 1020.2 -
30/02:30pm 21.6 - - - - ESE 19 22 10 12 1020.2 - -
30/02:00pm 21.4 - - - - ESE 19 22 10 12 1020.4 1020.4 -
30/01:30pm 21.5 - - - - ESE 19 26 10 14 1020.8 - -
30/01:00pm 21.4 - - - - ESE 17 20 9 11 1021.1 1021.1 -
30/12:30pm 21.6 - - - - SE 24 28 13 15 1021.4 - -
30/12:00pm 21.6 - - - - ESE 20 24 11 13 1022.0 1022.0 -
30/11:30am 21.6 - - - - ESE 17 20 9 11 1022.7 - -
30/11:00am 21.6 - - - - ESE 17 19 9 10 1023.0 1023.0 -
30/10:30am 21.6 - - - - E 15 17 8 9 1023.4 - -
30/10:00am 21.5 - - - - SE 13 17 7 9 1023.7 1023.7 -
30/09:30am 21.4 - - - - SE 13 17 7 9 1023.9 - -
30/09:00am 21.4 - - - - E 9 13 5 7 1023.9 1023.9 -
30/08:30am 21.4 - - - - SE 9 13 5 7 1023.6 - -
30/08:00am 21.3 - - - - ESE 15 19 8 10 1023.4 1023.4 -
30/07:30am 21.2 - - - - SE 13 17 7 9 1023.0 - -
30/07:00am 21.1 - - - - SE 11 15 6 8 1022.8 1022.8 -
30/06:30am 21.0 - - - - SE 11 15 6 8 1022.4 - -
30/06:00am 20.9 - - - - ESE 11 15 6 8 1022.2 1022.2 -
30/05:30am 20.9 - - - - ESE 7 13 4 7 1022.0 - -
30/05:00am 20.8 - - - - S 6 11 3 6 1021.8 1021.8 -
30/04:30am 20.5 - - - - CALM 0 0 0 0 1021.6 - -
30/04:00am 20.7 - - - - N 20 28 11 15 1021.3 1021.4 -
30/03:30am 20.7 - - - - NNE 11 17 6 9 1021.2 - -
30/03:00am 20.7 - - - - NNE 9 11 5 6 1021.1 1021.2 -
30/02:30am 20.8 - - - - N 17 24 9 13 1021.0 - -
30/02:00am 20.8 - - - - NNE 13 19 7 10 1021.1 1021.1 -
30/01:30am 20.8 - - - - E 7 11 4 6 1021.2 - -
30/01:00am 20.8 - - - - ENE 4 11 2 6 1021.3 1021.3 -
30/12:30am 21.0 - - - - ENE 11 26 6 14 1021.5 - -
30/12:00am 20.8 - - - - NE 9 13 5 7 1021.6 1021.6 -
 
Date/Time
EST
Temp
°C
App
Temp
°C
Dew
Point
Rel
Hum
%
Delta-T
°C
Wind Press
QNH
hPa
Press
MSL
hPa
Rain
since 9 am
mm
Dir
 
Spd
km/h
Gust
km/h
Spd
kts
Gust
kts
29/11:30pm 21.1 - - - - ESE 13 20 7 11 1021.7 - -
29/11:00pm 21.1 - - - - SSE 15 22 8 12 1021.8 1021.8 -
29/10:30pm 21.0 - - - - NE 9 13 5 7 1022.0 - -
29/10:00pm 20.9 - - - - ENE 15 22 8 12 1022.1 1022.1 -
29/09:30pm 20.6 - - - - NE 13 17 7 9 1022.1 - -
29/09:00pm 21.0 - - - - E 17 20 9 11 1022.2 1022.2 -
29/08:30pm 21.0 - - - - ENE 17 20 9 11 1022.1 - -
29/08:00pm 20.9 - - - - ENE 15 19 8 10 1022.0 1022.0 -

Other Formats:

Comma delimited format used in spreadsheet applications
http://www.bom.gov.au/fwo/IDQ60801/IDQ60801.94394.axf

JavaScript Object Notation format (JSON) in row-major order
http://www.bom.gov.au/fwo/IDQ60801/IDQ60801.94394.json